createdAt,value
2023-01-19T00:00:54.182Z,73.01
2023-01-19T00:03:21.709Z,73.08
2023-01-19T00:05:48.891Z,72.90
2023-01-19T00:08:16.755Z,72.87
2023-01-19T00:10:47.127Z,72.80
2023-01-19T00:13:15.056Z,72.73
2023-01-19T00:15:41.752Z,72.50
2023-01-19T00:18:10.589Z,72.50
2023-01-19T00:20:38.725Z,72.36
2023-01-19T00:23:07.640Z,72.24
2023-01-19T00:25:34.640Z,72.32
2023-01-19T00:28:02.010Z,72.39
2023-01-19T00:30:29.604Z,72.08
2023-01-19T00:32:56.636Z,72.17
2023-01-19T00:35:23.353Z,72.03
2023-01-19T00:37:50.099Z,72.10
2023-01-19T00:40:17.307Z,72.51
2023-01-19T00:42:44.628Z,72.74
2023-01-19T00:45:15.148Z,72.75
2023-01-19T00:47:42.232Z,72.72
2023-01-19T00:50:14.341Z,72.87
2023-01-19T00:52:41.355Z,72.77
2023-01-19T00:55:10.469Z,72.59
2023-01-19T00:57:38.790Z,72.48
2023-01-19T01:00:09.086Z,72.31
2023-01-19T01:02:36.873Z,72.46
2023-01-19T01:05:06.193Z,72.59
2023-01-19T01:07:40.616Z,72.75
2023-01-19T01:10:14.197Z,72.78
2023-01-19T01:12:41.763Z,72.81
2023-01-19T01:15:22.784Z,72.85
2023-01-19T01:17:52.941Z,72.62
2023-01-19T01:20:23.933Z,72.51
2023-01-19T01:22:53.591Z,72.46
2023-01-19T01:25:25.146Z,72.87
2023-01-19T01:27:52.513Z,72.76
2023-01-19T01:30:20.498Z,72.83
2023-01-19T01:32:47.325Z,72.85
2023-01-19T01:35:15.317Z,72.93
2023-01-19T01:37:42.954Z,73.01
2023-01-19T01:40:14.176Z,73.11
2023-01-19T01:42:42.563Z,73.17
2023-01-19T01:45:38.476Z,72.93
2023-01-19T01:48:27.139Z,72.82
2023-01-19T01:51:25.794Z,72.64
2023-01-19T01:54:10.887Z,72.76
2023-01-19T01:56:44.681Z,72.81
2023-01-19T01:59:29.446Z,72.44
2023-01-19T02:02:19.027Z,72.15
2023-01-19T02:04:58.041Z,72.23
2023-01-19T02:08:09.600Z,72.16
2023-01-19T02:10:55.390Z,72.22
2023-01-19T02:13:23.068Z,72.03
2023-01-19T02:15:57.923Z,71.75
2023-01-19T02:18:29.005Z,71.67
2023-01-19T02:21:24.448Z,71.86
2023-01-19T02:23:54.360Z,72.12
2023-01-19T02:26:28.529Z,71.80
2023-01-19T02:29:03.807Z,71.60
2023-01-19T02:31:32.513Z,71.90
2023-01-19T02:34:01.180Z,71.87
2023-01-19T02:36:56.186Z,71.95
2023-01-19T02:39:31.911Z,72.10
2023-01-19T02:42:07.196Z,72.18
2023-01-19T02:44:36.536Z,72.29
2023-01-19T02:47:04.317Z,72.26
2023-01-19T02:49:30.958Z,71.81
2023-01-19T02:51:59.138Z,71.76
2023-01-19T02:54:28.803Z,71.52
2023-01-19T02:57:36.193Z,71.79
2023-01-19T03:00:46.445Z,71.69
2023-01-19T03:03:55.907Z,72.03
2023-01-19T03:06:37.742Z,71.99
2023-01-19T03:09:31.846Z,72.00
2023-01-19T03:12:18.645Z,72.24
2023-01-19T03:14:48.105Z,72.34
2023-01-19T03:17:19.027Z,72.50
2023-01-19T03:19:49.564Z,72.72
2023-01-19T03:22:27.102Z,72.69
2023-01-19T03:24:57.118Z,72.70
2023-01-19T03:27:40.784Z,72.75
2023-01-19T03:30:18.569Z,72.75
2023-01-19T03:32:52.753Z,72.86
2023-01-19T03:35:24.278Z,72.81
2023-01-19T03:37:55.452Z,72.82
2023-01-19T03:40:24.754Z,72.71
2023-01-19T03:42:51.800Z,72.57
2023-01-19T03:45:18.634Z,72.62
2023-01-19T03:47:45.369Z,72.70
2023-01-19T03:50:22.140Z,72.73
2023-01-19T03:53:09.639Z,72.97
2023-01-19T03:55:39.383Z,72.94
2023-01-19T03:58:06.182Z,72.90
2023-01-19T04:00:33.993Z,72.80
2023-01-19T04:03:01.041Z,72.90
2023-01-19T04:05:27.984Z,73.03
2023-01-19T04:07:54.666Z,73.19
2023-01-19T04:10:22.268Z,73.06
2023-01-19T04:12:49.334Z,73.11
2023-01-19T04:15:16.398Z,73.19
2023-01-19T04:17:42.895Z,73.28
2023-01-19T04:20:10.209Z,73.32
2023-01-19T04:22:36.786Z,73.20
2023-01-19T04:25:04.076Z,73.32
2023-01-19T04:27:30.656Z,73.35
2023-01-19T04:29:57.357Z,73.30
2023-01-19T04:32:24.204Z,73.24
2023-01-19T04:34:50.819Z,73.34
2023-01-19T04:37:17.971Z,73.62
2023-01-19T04:39:44.487Z,73.74
2023-01-19T04:42:11.085Z,73.63
2023-01-19T04:44:37.637Z,73.65
2023-01-19T04:47:04.760Z,73.55
2023-01-19T04:49:31.472Z,73.43
2023-01-19T04:51:58.048Z,73.67
2023-01-19T04:54:24.742Z,73.67
2023-01-19T04:56:51.369Z,73.79
2023-01-19T04:59:19.851Z,73.74
2023-01-19T05:01:46.375Z,73.73
2023-01-19T05:04:12.980Z,73.46
2023-01-19T05:06:39.509Z,73.41
2023-01-19T05:09:09.117Z,73.32
2023-01-19T05:11:36.184Z,73.40
2023-01-19T05:14:02.830Z,73.45
2023-01-19T05:16:29.637Z,73.49
2023-01-19T05:18:56.786Z,73.57
2023-01-19T05:21:23.445Z,73.59
2023-01-19T05:23:50.051Z,73.60
2023-01-19T05:26:16.734Z,73.61
2023-01-19T05:28:43.360Z,73.73
2023-01-19T05:31:10.039Z,73.82
2023-01-19T05:33:36.707Z,73.79
2023-01-19T05:36:04.338Z,73.81
2023-01-19T05:38:35.617Z,73.92
2023-01-19T05:41:02.847Z,73.89
2023-01-19T05:43:29.488Z,73.90
2023-01-19T05:45:56.058Z,73.99
2023-01-19T05:48:22.696Z,74.18
2023-01-19T05:50:49.670Z,74.29
2023-01-19T05:53:17.429Z,74.23
2023-01-19T05:55:44.490Z,74.37
2023-01-19T05:58:11.140Z,74.50
2023-01-19T06:00:37.735Z,74.54
2023-01-19T06:03:06.524Z,74.61
2023-01-19T06:05:34.003Z,74.54
2023-01-19T06:08:00.570Z,74.58
2023-01-19T06:10:27.514Z,74.56
2023-01-19T06:12:54.091Z,74.54
2023-01-19T06:15:20.847Z,74.56
2023-01-19T06:17:47.521Z,74.48
2023-01-19T06:20:14.243Z,74.31
2023-01-19T06:22:40.888Z,74.43
2023-01-19T06:25:08.203Z,74.24
2023-01-19T06:27:34.817Z,74.27
2023-01-19T06:30:01.437Z,74.14
2023-01-19T06:32:28.132Z,74.25
2023-01-19T06:34:54.662Z,74.44
2023-01-19T06:37:21.291Z,74.29
2023-01-19T06:39:47.896Z,74.21
2023-01-19T06:42:14.497Z,74.23
2023-01-19T06:44:47.344Z,73.81
2023-01-19T06:47:16.491Z,73.54
2023-01-19T06:49:43.685Z,73.27
2023-01-19T06:52:12.293Z,73.14
2023-01-19T06:54:38.865Z,72.93
2023-01-19T06:57:05.730Z,72.76
2023-01-19T06:59:32.329Z,72.71
2023-01-19T07:01:59.170Z,72.51
2023-01-19T07:04:27.132Z,72.48
2023-01-19T07:06:53.856Z,72.11
2023-01-19T07:09:20.661Z,71.81
2023-01-19T07:11:48.475Z,71.68
2023-01-19T07:14:15.628Z,71.51
2023-01-19T07:16:42.563Z,71.50
2023-01-19T07:19:10.803Z,71.47
2023-01-19T07:21:37.626Z,71.50
2023-01-19T07:24:04.435Z,71.44
2023-01-19T07:26:31.158Z,71.27
2023-01-19T07:28:57.710Z,71.43
2023-01-19T07:31:24.586Z,71.46
2023-01-19T07:33:51.255Z,71.12
2023-01-19T07:36:17.945Z,71.00
2023-01-19T07:38:44.520Z,70.81
2023-01-19T07:41:11.726Z,70.81
2023-01-19T07:43:38.431Z,70.78
2023-01-19T07:46:07.861Z,70.81
2023-01-19T07:48:34.535Z,70.72
2023-01-19T07:51:05.878Z,70.61
2023-01-19T07:53:32.904Z,70.33
2023-01-19T07:55:59.661Z,70.41
2023-01-19T07:58:26.687Z,70.21
2023-01-19T08:00:53.775Z,70.03
2023-01-19T08:03:20.507Z,69.87
2023-01-19T08:05:52.614Z,69.74
2023-01-19T08:08:19.555Z,69.76
2023-01-19T08:10:50.786Z,69.46
2023-01-19T08:13:18.613Z,69.21
2023-01-19T08:15:45.327Z,69.31
2023-01-19T08:18:12.019Z,69.00
2023-01-19T08:20:38.719Z,68.70
2023-01-19T08:23:05.483Z,68.71
2023-01-19T08:25:35.308Z,68.56
2023-01-19T08:28:04.522Z,68.38
2023-01-19T08:30:31.491Z,68.30
2023-01-19T08:33:04.350Z,68.12
2023-01-19T08:35:32.428Z,67.97
2023-01-19T08:38:01.602Z,67.79
2023-01-19T08:40:30.876Z,67.53
2023-01-19T08:43:06.690Z,67.63
2023-01-19T08:45:41.633Z,67.21
2023-01-19T08:48:08.357Z,67.27
2023-01-19T08:50:35.144Z,66.76
2023-01-19T08:53:04.562Z,67.11
2023-01-19T08:55:31.250Z,67.04
2023-01-19T08:58:00.163Z,66.79
2023-01-19T09:00:28.162Z,66.53
2023-01-19T09:02:55.100Z,66.14
2023-01-19T09:05:22.346Z,66.02
2023-01-19T09:07:49.970Z,65.69
2023-01-19T09:10:17.877Z,65.70
2023-01-19T09:12:45.061Z,65.39
2023-01-19T09:15:13.965Z,65.41
2023-01-19T09:17:42.356Z,65.02
2023-01-19T09:20:10.153Z,65.13
2023-01-19T09:22:36.783Z,64.91
2023-01-19T09:25:03.785Z,64.33
2023-01-19T09:27:30.928Z,63.56
2023-01-19T09:29:57.491Z,64.58
2023-01-19T09:32:24.182Z,64.72
2023-01-19T09:34:51.199Z,64.51
2023-01-19T09:37:17.965Z,64.13
2023-01-19T09:39:44.647Z,63.33
2023-01-19T09:42:44.752Z,63.68
2023-01-19T09:45:23.044Z,63.54
2023-01-19T09:47:51.319Z,63.29
2023-01-19T09:50:28.225Z,62.80
2023-01-19T09:53:15.362Z,62.50
2023-01-19T09:55:42.641Z,62.47
2023-01-19T09:58:18.344Z,62.33
2023-01-19T10:00:55.820Z,61.61
2023-01-19T10:03:23.973Z,61.25
2023-01-19T10:06:04.824Z,60.87
2023-01-19T10:08:53.875Z,60.64
2023-01-19T10:11:52.672Z,60.13
2023-01-19T10:14:36.938Z,58.64
2023-01-19T10:17:47.047Z,58.05
2023-01-19T10:20:39.936Z,57.07
2023-01-19T10:23:30.251Z,55.96
2023-01-19T10:26:01.335Z,55.15
2023-01-19T10:28:28.274Z,54.31
2023-01-19T10:30:56.033Z,53.53
2023-01-19T10:33:22.868Z,53.48
2023-01-19T10:35:50.484Z,51.19
2023-01-19T10:38:22.220Z,51.16
2023-01-19T10:41:06.169Z,51.16
2023-01-19T10:43:35.466Z,49.97
2023-01-19T10:46:18.053Z,50.78
2023-01-19T10:48:51.999Z,49.30
2023-01-19T10:51:20.190Z,49.14
2023-01-19T10:54:01.681Z,48.46
2023-01-19T10:56:34.846Z,48.03
2023-01-19T10:59:05.213Z,47.46
2023-01-19T11:01:36.927Z,47.31
2023-01-19T11:04:29.352Z,47.41
2023-01-19T11:07:21.320Z,46.36
2023-01-19T11:09:49.511Z,46.47
2023-01-19T11:12:23.324Z,46.33
2023-01-19T11:14:51.352Z,45.51
2023-01-19T11:17:25.356Z,46.50
2023-01-19T11:19:59.353Z,46.54
2023-01-19T11:22:30.670Z,47.23
2023-01-19T11:25:00.175Z,46.96
2023-01-19T11:27:27.735Z,47.00
2023-01-19T11:30:22.984Z,47.58
2023-01-19T11:32:49.672Z,48.02
2023-01-19T11:35:35.346Z,47.75
2023-01-19T11:38:20.773Z,47.47
2023-01-19T11:40:59.060Z,48.09
2023-01-19T11:43:43.355Z,48.44
2023-01-19T11:46:15.499Z,48.93
2023-01-19T11:49:38.476Z,49.03
2023-01-19T11:52:13.635Z,48.86
2023-01-19T11:55:10.895Z,48.87
2023-01-19T11:57:39.547Z,48.78
2023-01-19T12:00:47.388Z,48.48
2023-01-19T12:03:24.291Z,48.95
2023-01-19T12:06:02.377Z,48.95
2023-01-19T12:08:41.910Z,48.54
2023-01-19T12:11:16.704Z,48.57
2023-01-19T12:13:45.634Z,48.64
2023-01-19T12:16:20.721Z,48.83
2023-01-19T12:19:01.727Z,48.82
2023-01-19T12:21:28.556Z,49.21
2023-01-19T12:24:16.436Z,49.00
2023-01-19T12:27:02.239Z,49.31
2023-01-19T12:29:33.453Z,49.05
2023-01-19T12:32:18.416Z,48.88
2023-01-19T12:34:49.526Z,49.00
2023-01-19T12:37:31.186Z,48.90
2023-01-19T12:40:21.212Z,49.06
2023-01-19T12:43:02.201Z,49.06
2023-01-19T12:45:35.324Z,48.79
2023-01-19T12:48:04.346Z,49.33
2023-01-19T12:50:38.244Z,49.27
2023-01-19T12:53:17.872Z,49.35
2023-01-19T12:55:47.575Z,49.24
2023-01-19T12:58:18.881Z,49.35
2023-01-19T13:00:48.924Z,49.49
2023-01-19T13:03:18.401Z,49.58
2023-01-19T13:05:44.956Z,49.67
2023-01-19T13:08:14.171Z,49.37
2023-01-19T13:10:59.820Z,49.59
2023-01-19T13:13:40.370Z,49.58
2023-01-19T13:16:19.179Z,49.70
2023-01-19T13:19:06.239Z,49.65
2023-01-19T13:21:47.398Z,49.69
2023-01-19T13:24:25.229Z,49.87
2023-01-19T13:26:51.759Z,49.69
2023-01-19T13:29:26.631Z,49.98
2023-01-19T13:31:56.103Z,49.93
2023-01-19T13:34:27.916Z,49.82
2023-01-19T13:36:59.257Z,50.11
2023-01-19T13:39:41.742Z,49.90
2023-01-19T13:42:16.415Z,49.79
2023-01-19T13:44:52.351Z,50.17
2023-01-19T13:47:45.687Z,50.37
2023-01-19T13:50:26.325Z,50.22
2023-01-19T13:52:55.664Z,50.38
2023-01-19T13:55:24.156Z,50.41
2023-01-19T13:57:52.393Z,50.45
2023-01-19T14:00:26.811Z,50.10
2023-01-19T14:03:01.032Z,50.12
2023-01-19T14:05:35.798Z,50.29
2023-01-19T14:08:11.307Z,50.38
2023-01-19T14:10:40.517Z,49.46
2023-01-19T14:13:16.314Z,49.43
2023-01-19T14:15:45.173Z,49.08
2023-01-19T14:18:14.479Z,48.92
2023-01-19T14:20:42.207Z,49.00
2023-01-19T14:24:10.384Z,49.06
2023-01-19T14:27:25.507Z,49.18
2023-01-19T14:29:54.772Z,49.41
2023-01-19T14:32:24.871Z,49.35
2023-01-19T14:35:14.615Z,49.23
2023-01-19T14:37:50.301Z,49.07
2023-01-19T14:40:22.409Z,49.64
2023-01-19T14:43:00.154Z,49.74
2023-01-19T14:45:39.536Z,49.48
2023-01-19T14:48:17.966Z,49.98
2023-01-19T14:51:01.901Z,49.76
2023-01-19T14:53:36.581Z,49.97
2023-01-19T14:56:06.066Z,49.86
2023-01-19T14:58:35.866Z,49.71
2023-01-19T15:01:04.708Z,49.70
2023-01-19T15:03:44.704Z,50.40
2023-01-19T15:06:19.068Z,50.64
2023-01-19T15:08:47.143Z,50.47
2023-01-19T15:11:28.400Z,50.56
2023-01-19T15:13:59.188Z,50.89
2023-01-19T15:16:28.103Z,51.04
2023-01-19T15:18:55.342Z,51.10
2023-01-19T15:21:29.119Z,51.12
2023-01-19T15:23:56.255Z,51.02
2023-01-19T15:26:25.938Z,50.82
2023-01-19T15:28:53.556Z,50.88
2023-01-19T15:31:23.637Z,50.60
2023-01-19T15:33:50.654Z,50.34
2023-01-19T15:36:22.118Z,50.06
2023-01-19T15:38:51.254Z,50.34
2023-01-19T15:41:29.673Z,50.47
2023-01-19T15:43:57.029Z,50.31
2023-01-19T15:46:25.810Z,50.77
2023-01-19T15:48:53.780Z,51.12
2023-01-19T15:51:25.468Z,51.09
2023-01-19T15:53:53.781Z,51.25
2023-01-19T15:56:23.438Z,51.43
2023-01-19T15:58:50.846Z,51.43
2023-01-19T16:01:22.396Z,51.79
2023-01-19T16:03:50.333Z,51.93
2023-01-19T16:06:18.311Z,52.17
2023-01-19T16:08:45.438Z,52.29
2023-01-19T16:11:15.473Z,52.25
2023-01-19T16:13:46.310Z,52.56
2023-01-19T16:16:20.401Z,52.63
2023-01-19T16:18:47.822Z,52.62
2023-01-19T16:21:14.560Z,52.87
2023-01-19T16:23:41.128Z,52.81
2023-01-19T16:26:34.210Z,52.66
2023-01-19T16:29:08.780Z,52.52
2023-01-19T16:31:40.899Z,52.52
2023-01-19T16:34:09.247Z,52.52
2023-01-19T16:36:38.676Z,52.71
2023-01-19T16:39:11.923Z,52.58
2023-01-19T16:41:39.091Z,52.43
2023-01-19T16:44:06.663Z,52.23
2023-01-19T16:46:37.757Z,52.08
2023-01-19T16:49:10.991Z,51.94
2023-01-19T16:51:38.201Z,51.98
2023-01-19T16:54:05.379Z,51.92
2023-01-19T16:56:32.009Z,52.11
2023-01-19T16:58:59.497Z,52.33
2023-01-19T17:01:29.359Z,52.61
2023-01-19T17:03:56.643Z,52.76
2023-01-19T17:06:24.815Z,52.72
2023-01-19T17:08:53.129Z,52.82
2023-01-19T17:11:27.277Z,52.87
2023-01-19T17:14:02.951Z,52.94
2023-01-19T17:16:32.355Z,53.04
2023-01-19T17:19:03.622Z,53.16
2023-01-19T17:21:30.289Z,53.28
2023-01-19T17:23:58.410Z,53.37
2023-01-19T17:26:28.458Z,53.21
2023-01-19T17:29:06.007Z,53.48
2023-01-19T17:31:33.997Z,53.68
2023-01-19T17:34:01.130Z,53.87
2023-01-19T17:36:31.381Z,53.92
2023-01-19T17:39:00.931Z,53.96
2023-01-19T17:41:31.562Z,53.93
2023-01-19T17:44:00.344Z,53.81
2023-01-19T17:46:29.251Z,53.66
2023-01-19T17:49:04.631Z,53.71
2023-01-19T17:51:31.748Z,53.80
2023-01-19T17:53:59.316Z,53.86
2023-01-19T17:56:32.665Z,53.84
2023-01-19T17:58:59.789Z,53.71
2023-01-19T18:01:30.278Z,53.80
2023-01-19T18:03:58.177Z,53.80
2023-01-19T18:06:24.933Z,53.88
2023-01-19T18:08:52.598Z,53.96
2023-01-19T18:11:21.367Z,54.10
2023-01-19T18:13:50.749Z,54.03
2023-01-19T18:16:23.357Z,54.06
2023-01-19T18:18:53.704Z,54.14
2023-01-19T18:21:22.096Z,54.01
2023-01-19T18:23:50.141Z,54.05
2023-01-19T18:26:20.502Z,54.16
2023-01-19T18:28:48.773Z,54.15
2023-01-19T18:31:18.709Z,54.01
2023-01-19T18:33:46.585Z,54.04
2023-01-19T18:36:13.865Z,54.13
2023-01-19T18:38:41.019Z,54.13
2023-01-19T18:41:16.316Z,54.04
2023-01-19T18:43:43.628Z,53.99
2023-01-19T18:46:11.512Z,53.84
2023-01-19T18:48:39.600Z,53.93
2023-01-19T18:51:12.478Z,53.73
2023-01-19T18:53:39.901Z,53.94
2023-01-19T18:56:07.472Z,54.02
2023-01-19T18:58:38.172Z,54.08
2023-01-19T19:01:17.410Z,54.11
2023-01-19T19:03:44.300Z,54.12
2023-01-19T19:06:11.665Z,54.20
2023-01-19T19:08:38.357Z,54.20
2023-01-19T19:11:09.097Z,54.17
2023-01-19T19:13:36.611Z,54.07
2023-01-19T19:16:09.084Z,54.11
2023-01-19T19:18:37.015Z,54.13
2023-01-19T19:21:10.141Z,54.01
2023-01-19T19:23:37.244Z,53.97
2023-01-19T19:26:10.113Z,54.11
2023-01-19T19:28:40.172Z,54.12
2023-01-19T19:31:13.084Z,54.20
2023-01-19T19:33:39.923Z,54.21
2023-01-19T19:36:08.142Z,54.23
2023-01-19T19:38:36.954Z,54.15
2023-01-19T19:41:09.247Z,54.31
2023-01-19T19:43:37.102Z,54.35
2023-01-19T19:46:08.332Z,54.15
2023-01-19T19:48:38.900Z,54.17
2023-01-19T19:51:18.340Z,54.09
2023-01-19T19:53:46.779Z,54.16
2023-01-19T19:56:13.845Z,54.30
2023-01-19T19:58:42.529Z,54.32
2023-01-19T20:01:12.391Z,54.27
2023-01-19T20:03:39.953Z,54.20
2023-01-19T20:06:15.939Z,54.13
2023-01-19T20:08:42.652Z,54.12
2023-01-19T20:11:13.508Z,54.14
2023-01-19T20:13:42.678Z,54.17
2023-01-19T20:16:17.229Z,54.16
2023-01-19T20:18:48.573Z,54.15
2023-01-19T20:21:22.222Z,54.11
2023-01-19T20:23:50.894Z,54.04
2023-01-19T20:26:26.382Z,53.91
2023-01-19T20:28:54.520Z,54.00
2023-01-19T20:31:27.053Z,54.02
2023-01-19T20:33:56.446Z,53.98
2023-01-19T20:36:24.521Z,54.05
2023-01-19T20:38:55.283Z,53.84
2023-01-19T20:41:23.006Z,54.08
2023-01-19T20:43:50.337Z,54.18
2023-01-19T20:46:18.281Z,54.21
2023-01-19T20:48:50.680Z,54.08
2023-01-19T20:51:18.820Z,53.93
2023-01-19T20:53:45.984Z,53.83
2023-01-19T20:56:14.481Z,53.83
2023-01-19T20:58:41.810Z,53.91
2023-01-19T21:01:24.937Z,54.04
2023-01-19T21:03:52.563Z,53.99
2023-01-19T21:06:21.502Z,54.20
2023-01-19T21:08:50.056Z,54.29
2023-01-19T21:11:20.719Z,54.35
2023-01-19T21:13:48.918Z,54.30
2023-01-19T21:16:15.939Z,54.37
2023-01-19T21:18:43.281Z,54.30
2023-01-19T21:21:20.892Z,54.56
2023-01-19T21:23:57.191Z,54.76
2023-01-19T21:26:24.166Z,54.94
2023-01-19T21:28:50.879Z,55.12
2023-01-19T21:31:17.801Z,55.21
2023-01-19T21:33:44.445Z,55.20
2023-01-19T21:36:11.178Z,55.22
2023-01-19T21:38:39.377Z,55.12
2023-01-19T21:41:12.756Z,54.99
2023-01-19T21:43:41.802Z,54.96
2023-01-19T21:46:29.787Z,54.95
2023-01-19T21:49:05.779Z,54.97
2023-01-19T21:51:35.395Z,54.99
2023-01-19T21:54:04.138Z,54.95
2023-01-19T21:56:30.886Z,54.95
2023-01-19T21:59:02.208Z,54.80
2023-01-19T22:01:29.822Z,54.74
2023-01-19T22:03:58.308Z,54.55
2023-01-19T22:06:26.690Z,54.43
2023-01-19T22:08:54.664Z,54.57
2023-01-19T22:11:22.039Z,54.51
2023-01-19T22:13:48.684Z,54.48
2023-01-19T22:16:21.363Z,54.34
2023-01-19T22:19:02.300Z,54.42
2023-01-19T22:21:35.337Z,54.47
2023-01-19T22:24:04.682Z,54.55
2023-01-19T22:26:34.230Z,54.79
2023-01-19T22:29:03.091Z,54.94
2023-01-19T22:31:30.873Z,55.14
2023-01-19T22:33:58.073Z,55.25
2023-01-19T22:36:28.926Z,55.23
2023-01-19T22:38:58.865Z,55.27
2023-01-19T22:41:29.535Z,55.25
2023-01-19T22:43:59.725Z,55.19
2023-01-19T22:46:30.706Z,55.44
2023-01-19T22:48:58.775Z,55.26
2023-01-19T22:51:27.193Z,55.05
2023-01-19T22:53:54.038Z,55.02
2023-01-19T22:56:27.496Z,55.12
2023-01-19T22:58:54.943Z,55.23
2023-01-19T23:01:42.908Z,55.31
2023-01-19T23:04:14.589Z,55.23
2023-01-19T23:06:41.389Z,55.11
2023-01-19T23:09:12.682Z,55.12
2023-01-19T23:11:43.295Z,55.23
2023-01-19T23:14:15.717Z,55.30
2023-01-19T23:16:42.532Z,55.47
2023-01-19T23:19:12.240Z,55.68
2023-01-19T23:21:38.911Z,55.78
2023-01-19T23:24:05.861Z,55.72
2023-01-19T23:26:39.025Z,55.60
2023-01-19T23:29:12.736Z,55.83
2023-01-19T23:31:44.061Z,55.92
2023-01-19T23:34:12.382Z,55.97
2023-01-19T23:36:41.440Z,56.05
2023-01-19T23:39:17.655Z,56.11
2023-01-19T23:41:45.628Z,56.17
2023-01-19T23:44:13.081Z,56.15
2023-01-19T23:46:39.783Z,56.22
2023-01-19T23:49:06.563Z,56.27
2023-01-19T23:51:35.884Z,56.30
2023-01-19T23:54:02.743Z,56.34
2023-01-19T23:56:33.548Z,56.42
2023-01-19T23:59:13.280Z,56.22
